• Join FlightAware (Why Join?)
  • Login
  • US Flag 
06:45AM EDT


 

Airport Tracker/Info


-or-


 

Live Flight TrackerFlight Track Log ✈ CHH7007 ✈ 21-Oct-2013 ✈ ZJHK / HAK - ZGGG / CAN

Flight Track Log - Related Links

Times and Time Zones

All times are in EDT time to prevent confusion due to time zone crossing. See the CHH7007 flight status page for this flight to view local times or setup timezone preferences in your user account.

Time Position Orientation Groundspeed Altitude Reporting Facility
EDT Latitude Longitude Course Direction KTS MPH feet Rate Location/Type
01:16AM 20.0219 110.5284 37° Northeast  Level Estimated
01:17AM 20.1089 110.5979 37° Northeast  Level Estimated
01:18AM 20.1959 110.6675 37° Northeast  Level Estimated
01:19AM 20.2829 110.7371 37° Northeast  Level Estimated
01:20AM 20.3699 110.8069 37° Northeast  Level Estimated
01:21AM 20.4568 110.8767 37° Northeast  Level Estimated
01:22AM 20.5437 110.9466 37° Northeast  Level Estimated
01:23AM 20.6305 111.0166 37° Northeast  Level Estimated
01:24AM 20.6937 111.0675 37° Northeast  Level Estimated
01:25AM 20.7568 111.1185 37° Northeast  Level Estimated
01:26AM 20.8199 111.1695 37° Northeast  Level Estimated
01:27AM 20.8831 111.2206 37° Northeast  Level Estimated
01:28AM 20.9461 111.2717 37° Northeast  Level Estimated
01:29AM 21.0092 111.3229 37° Northeast  Level Estimated
01:29AM 22.4950 111.8410 37° Northeast 373 429 22,100  Level FlightAware
01:30AM 21.0723 111.3740 37° Northeast  Level Estimated
01:30AM 22.5400 111.8910 46° Northeast 380 437 21,800  Level FlightAware
01:30AM 22.5770 111.9330 46° Northeast 380 437 21,800 -1,920 Level FlightAware
01:31AM 22.6300 111.9920 46° Northeast 400 460 19,700 -2,880 Descending FlightAware
01:31AM 22.6710 112.0370 45° Northeast 402 463 18,900 -1,560 Descending FlightAware
01:32AM 22.7260 112.0990 46° Northeast 400 460 17,800 -1,500 Descending FlightAware
01:33AM 22.7860 112.1670 46° Northeast 398 458 16,700 -1,500 Descending FlightAware
01:33AM 22.8270 112.2180 49° Northeast 397 457 15,800 -1,500 Descending FlightAware
01:33AM 22.8340 112.2370 68° East 398 458 15,600 -1,500 Descending FlightAware
01:34AM 22.8510 112.3020 74° East 391 450 14,700 -1,500 Descending FlightAware
01:35AM 22.8680 112.3640 73° East 383 441 13,900 -1,500 Descending FlightAware
01:35AM 22.8870 112.4290 72° East 375 432 13,000 -1,380 Descending FlightAware
01:36AM 22.9040 112.4940 74° East 367 422 12,300 -1,020 Descending FlightAware
01:36AM 22.9180 112.5450 73° East 362 417 11,900 -840 Descending FlightAware
01:37AM 22.9460 112.6090 65° Northeast 362 417 11,400 -840 Descending FlightAware
01:38AM 22.9710 112.6660 65° Northeast 352 405 10,900 -960 Descending FlightAware
01:38AM 22.9950 112.7220 65° Northeast 325 374 10,300 -1,080 Descending FlightAware
01:38AM 23.0080 112.7510 64° Northeast 314 361 9,900 -1,200 Descending FlightAware
01:39AM 23.0200 112.7780 64° Northeast 310 357 9,500 -1,260 Descending FlightAware
01:39AM 23.0320 112.8050 64° Northeast 305 351 9,100 -1,260 Descending FlightAware
01:40AM 23.0460 112.8360 64° Northeast 300 345 8,600 -1,380 Descending FlightAware
01:40AM 23.0590 112.8660 65° Northeast 292 336 8,100 -1,620 Descending FlightAware
01:40AM 23.0710 112.8920 63° Northeast 289 333 7,500 -1,800 Descending FlightAware
01:40AM 23.0780 112.9070 63° Northeast 287 330 7,200 -1,560 Descending FlightAware
01:41AM 23.0920 112.9380 64° Northeast 282 325 6,600 -1,680 Descending FlightAware
01:41AM 23.1030 112.9630 64° Northeast 281 323 6,000 -1,680 Descending FlightAware
01:41AM 23.1150 112.9890 63° Northeast 275 316 5,500 -1,680 Descending FlightAware
01:42AM 23.1260 113.0140 64° Northeast 274 315 4,900 -1,740 Descending FlightAware
01:42AM 23.1350 113.0350 65° Northeast 271 312 4,400 -1,440 Descending FlightAware
01:42AM 23.1450 113.0590 66° East 265 305 4,000 -1,320 Descending FlightAware
01:43AM 23.1520 113.0750 65° Northeast 261 300 3,700 -1,320 Descending FlightAware
01:43AM 23.1640 113.1040 66° East 258 297 3,200 -840 Descending FlightAware
01:43AM 23.1730 113.1240 64° Northeast 246 283 3,100 -600 Descending FlightAware
01:44AM 23.1790 113.1380 65° Northeast 242 278 2,900 -600 Descending FlightAware
01:44AM 23.1870 113.1580 66° East 229 264 2,800 -360 Descending FlightAware
01:44AM 23.1950 113.1760 64° Northeast 213 245 2,700 -660 Descending FlightAware
01:44AM 23.2030 113.1940 64° Northeast 198 228 2,400 -420 Descending FlightAware
01:45AM 23.2110 113.2160 68° East 188 216 2,400 120 Level FlightAware
01:45AM 23.2180 113.2330 66° East 188 216 2,500  Climbing FlightAware
01:45AM 23.2240 113.2430 57° Northeast 186 214 2,400 -300 Descending FlightAware
01:46AM 23.2290 113.2470 36° Northeast 182 209 2,400  Level FlightAware
01:46AM 23.2430 113.2590 38° Northeast 180 207 2,400  Level FlightAware
01:46AM 23.2580 113.2720 39° Northeast 175 201 2,400 -540 Level FlightAware
01:46AM 23.2670 113.2760 22° Northeast 174 200 2,100 -1,140 Descending FlightAware
01:47AM 23.2820 113.2800 14° North 161 185 1,800 -840 Descending FlightAware
01:47AM 23.2980 113.2840 13° North 153 176 1,500 -780 Descending FlightAware
01:48AM 23.3100 113.2880 17° North 146 168 1,300 -300 Descending FlightAware
01:48AM 23.3240 113.2910 11° North 146 168 1,300  Level FlightAware
01:51AM 23.3924 113.2988 North  Level Estimated
01:52AM 23.3924 113.2988 223° Southwest  Level Estimated
01:53AM 23.3924 113.2988 223° Southwest  Level Estimated
01:54AM 23.3924 113.2988 223° Southwest  Level Estimated
01:55AM 23.3924 113.2988 223° Southwest  Level Estimated
01:56AM 23.3924 113.2988 223° Southwest  Level Estimated
01:57AM 23.3924 113.2988 223° Southwest  Level Estimated
01:58AM 23.3924 113.2988 223° Southwest  Level Estimated
01:59AM 23.3924 113.2988 223° Southwest  Level Estimated
02:00AM 23.3924 113.2988 223° Southwest  Level Estimated
02:01AM 23.3924 113.2988 223° Southwest  Level Estimated
02:02AM 23.3924 113.2988 223° Southwest  Level Estimated
02:03AM 23.3924 113.2988 223° Southwest  Level Estimated
02:04AM 23.3924 113.2988 223° Southwest  Level Estimated
02:05AM 23.3924 113.2988 223° Southwest  Level Estimated